sensor_id;sensor_type;location;lat;lon;timestamp;P1;durP1;ratioP1;P2;durP2;ratioP2
703;SDS011;335;48.694;9.120;2023-05-23T00:01:37;25.07;;;22.47;;
703;SDS011;335;48.694;9.120;2023-05-23T00:04:03;32.33;;;28.07;;
703;SDS011;335;48.694;9.120;2023-05-23T00:06:28;31.27;;;27.60;;
703;SDS011;335;48.694;9.120;2023-05-23T00:08:53;30.47;;;25.27;;
703;SDS011;335;48.694;9.120;2023-05-23T00:11:19;34.90;;;27.13;;
703;SDS011;335;48.694;9.120;2023-05-23T00:13:48;33.43;;;29.03;;
703;SDS011;335;48.694;9.120;2023-05-23T00:16:15;34.97;;;30.50;;
703;SDS011;335;48.694;9.120;2023-05-23T00:18:40;40.63;;;32.83;;
703;SDS011;335;48.694;9.120;2023-05-23T00:21:07;39.40;;;32.47;;
703;SDS011;335;48.694;9.120;2023-05-23T00:23:33;44.77;;;36.10;;
703;SDS011;335;48.694;9.120;2023-05-23T00:25:59;48.50;;;37.40;;
703;SDS011;335;48.694;9.120;2023-05-23T00:28:24;46.90;;;35.80;;
703;SDS011;335;48.694;9.120;2023-05-23T00:30:50;51.23;;;38.07;;
703;SDS011;335;48.694;9.120;2023-05-23T00:33:15;46.53;;;37.30;;
703;SDS011;335;48.694;9.120;2023-05-23T00:35:41;47.20;;;36.50;;
703;SDS011;335;48.694;9.120;2023-05-23T00:38:06;50.03;;;38.90;;
703;SDS011;335;48.694;9.120;2023-05-23T00:40:32;51.70;;;39.70;;
703;SDS011;335;48.694;9.120;2023-05-23T00:42:58;53.63;;;43.23;;
703;SDS011;335;48.694;9.120;2023-05-23T00:45:24;54.13;;;41.80;;
703;SDS011;335;48.694;9.120;2023-05-23T00:47:50;52.30;;;40.67;;
703;SDS011;335;48.694;9.120;2023-05-23T00:50:16;66.90;;;46.70;;
703;SDS011;335;48.694;9.120;2023-05-23T00:52:43;55.13;;;42.40;;
703;SDS011;335;48.694;9.120;2023-05-23T00:55:09;62.17;;;45.13;;
703;SDS011;335;48.694;9.120;2023-05-23T00:57:35;56.23;;;43.87;;
703;SDS011;335;48.694;9.120;2023-05-23T01:00:11;56.70;;;44.40;;
703;SDS011;335;48.694;9.120;2023-05-23T01:02:42;57.33;;;44.77;;
703;SDS011;335;48.694;9.120;2023-05-23T01:05:13;60.07;;;44.00;;
703;SDS011;335;48.694;9.120;2023-05-23T01:07:41;55.57;;;43.73;;
703;SDS011;335;48.694;9.120;2023-05-23T01:10:10;62.53;;;47.27;;
703;SDS011;335;48.694;9.120;2023-05-23T01:12:50;52.30;;;41.37;;
703;SDS011;335;48.694;9.120;2023-05-23T01:15:22;58.33;;;44.93;;
703;SDS011;335;48.694;9.120;2023-05-23T01:20:24;63.40;;;46.30;;
703;SDS011;335;48.694;9.120;2023-05-23T01:28:02;75.50;;;52.10;;
703;SDS011;335;48.694;9.120;2023-05-23T01:30:31;83.20;;;53.67;;
703;SDS011;335;48.694;9.120;2023-05-23T01:32:57;63.93;;;49.10;;
703;SDS011;335;48.694;9.120;2023-05-23T01:35:23;75.97;;;53.30;;
703;SDS011;335;48.694;9.120;2023-05-23T01:37:51;69.77;;;51.40;;
703;SDS011;335;48.694;9.120;2023-05-23T01:40:20;77.37;;;54.07;;
703;SDS011;335;48.694;9.120;2023-05-23T01:42:48;88.47;;;57.10;;
703;SDS011;335;48.694;9.120;2023-05-23T01:45:14;88.63;;;56.13;;
703;SDS011;335;48.694;9.120;2023-05-23T01:47:40;77.30;;;56.30;;
703;SDS011;335;48.694;9.120;2023-05-23T01:50:07;84.03;;;55.27;;
703;SDS011;335;48.694;9.120;2023-05-23T01:52:33;86.37;;;57.10;;
703;SDS011;335;48.694;9.120;2023-05-23T01:54:59;80.50;;;55.10;;
703;SDS011;335;48.694;9.120;2023-05-23T01:57:25;84.27;;;61.43;;
703;SDS011;335;48.694;9.120;2023-05-23T01:59:50;88.63;;;58.83;;
703;SDS011;335;48.694;9.120;2023-05-23T02:02:15;93.97;;;60.10;;
703;SDS011;335;48.694;9.120;2023-05-23T02:04:41;93.33;;;63.23;;
703;SDS011;335;48.694;9.120;2023-05-23T02:07:06;91.27;;;62.07;;
703;SDS011;335;48.694;9.120;2023-05-23T02:09:31;88.70;;;58.57;;
703;SDS011;335;48.694;9.120;2023-05-23T02:11:57;92.50;;;61.70;;
703;SDS011;335;48.694;9.120;2023-05-23T02:14:23;87.37;;;59.27;;
703;SDS011;335;48.694;9.120;2023-05-23T02:16:50;100.53;;;61.90;;
703;SDS011;335;48.694;9.120;2023-05-23T02:19:17;93.63;;;59.63;;
703;SDS011;335;48.694;9.120;2023-05-23T02:21:43;89.43;;;60.50;;
703;SDS011;335;48.694;9.120;2023-05-23T02:24:08;94.47;;;63.63;;
703;SDS011;335;48.694;9.120;2023-05-23T02:26:33;95.97;;;62.57;;
703;SDS011;335;48.694;9.120;2023-05-23T02:28:58;79.23;;;57.20;;
703;SDS011;335;48.694;9.120;2023-05-23T02:31:25;85.40;;;58.73;;
703;SDS011;335;48.694;9.120;2023-05-23T02:33:50;90.77;;;60.70;;
703;SDS011;335;48.694;9.120;2023-05-23T02:36:16;84.37;;;60.83;;
703;SDS011;335;48.694;9.120;2023-05-23T02:38:41;88.77;;;60.13;;
703;SDS011;335;48.694;9.120;2023-05-23T02:41:06;73.03;;;51.13;;
703;SDS011;335;48.694;9.120;2023-05-23T02:43:31;81.70;;;55.13;;
703;SDS011;335;48.694;9.120;2023-05-23T02:45:57;80.90;;;55.30;;
703;SDS011;335;48.694;9.120;2023-05-23T02:48:22;70.70;;;52.50;;
703;SDS011;335;48.694;9.120;2023-05-23T02:50:47;88.47;;;57.40;;
703;SDS011;335;48.694;9.120;2023-05-23T02:53:13;94.90;;;61.57;;
703;SDS011;335;48.694;9.120;2023-05-23T02:55:38;92.27;;;61.13;;
703;SDS011;335;48.694;9.120;2023-05-23T02:58:03;90.70;;;62.50;;
703;SDS011;335;48.694;9.120;2023-05-23T03:00:29;90.67;;;60.93;;
703;SDS011;335;48.694;9.120;2023-05-23T03:02:56;86.63;;;60.87;;
703;SDS011;335;48.694;9.120;2023-05-23T03:05:21;88.50;;;61.07;;
703;SDS011;335;48.694;9.120;2023-05-23T03:07:47;86.40;;;59.23;;
703;SDS011;335;48.694;9.120;2023-05-23T03:10:12;84.53;;;59.80;;
703;SDS011;335;48.694;9.120;2023-05-23T03:12:37;89.80;;;58.17;;
703;SDS011;335;48.694;9.120;2023-05-23T03:15:03;87.00;;;63.53;;
703;SDS011;335;48.694;9.120;2023-05-23T03:17:29;86.77;;;61.10;;
703;SDS011;335;48.694;9.120;2023-05-23T03:19:54;86.40;;;62.63;;
703;SDS011;335;48.694;9.120;2023-05-23T03:22:20;97.87;;;64.77;;
703;SDS011;335;48.694;9.120;2023-05-23T03:24:45;91.03;;;62.20;;
703;SDS011;335;48.694;9.120;2023-05-23T03:27:10;92.10;;;63.40;;
703;SDS011;335;48.694;9.120;2023-05-23T03:29:36;87.67;;;63.50;;
703;SDS011;335;48.694;9.120;2023-05-23T03:32:01;83.83;;;58.70;;
703;SDS011;335;48.694;9.120;2023-05-23T03:34:26;85.97;;;63.00;;
703;SDS011;335;48.694;9.120;2023-05-23T03:36:52;76.03;;;58.70;;
703;SDS011;335;48.694;9.120;2023-05-23T03:39:17;89.53;;;64.70;;
703;SDS011;335;48.694;9.120;2023-05-23T03:41:42;87.30;;;64.17;;
703;SDS011;335;48.694;9.120;2023-05-23T03:44:08;74.23;;;58.13;;
703;SDS011;335;48.694;9.120;2023-05-23T03:46:33;85.07;;;61.47;;
703;SDS011;335;48.694;9.120;2023-05-23T03:48:58;75.17;;;54.07;;
703;SDS011;335;48.694;9.120;2023-05-23T03:51:24;76.33;;;56.30;;
703;SDS011;335;48.694;9.120;2023-05-23T03:53:49;70.43;;;54.37;;
703;SDS011;335;48.694;9.120;2023-05-23T03:56:15;67.93;;;58.20;;
703;SDS011;335;48.694;9.120;2023-05-23T03:58:40;72.03;;;53.80;;
703;SDS011;335;48.694;9.120;2023-05-23T04:01:05;69.63;;;53.50;;
703;SDS011;335;48.694;9.120;2023-05-23T04:03:31;72.10;;;53.90;;
703;SDS011;335;48.694;9.120;2023-05-23T04:05:57;72.03;;;55.60;;
703;SDS011;335;48.694;9.120;2023-05-23T04:08:23;68.63;;;54.30;;
703;SDS011;335;48.694;9.120;2023-05-23T04:10:49;62.40;;;52.53;;
703;SDS011;335;48.694;9.120;2023-05-23T04:13:14;70.23;;;56.20;;
703;SDS011;335;48.694;9.120;2023-05-23T04:15:40;70.97;;;54.30;;
703;SDS011;335;48.694;9.120;2023-05-23T04:18:06;61.03;;;51.20;;
703;SDS011;335;48.694;9.120;2023-05-23T04:20:33;65.97;;;52.77;;
703;SDS011;335;48.694;9.120;2023-05-23T04:22:58;62.00;;;51.70;;
703;SDS011;335;48.694;9.120;2023-05-23T04:25:23;73.37;;;54.00;;
703;SDS011;335;48.694;9.120;2023-05-23T04:27:50;67.37;;;56.27;;
703;SDS011;335;48.694;9.120;2023-05-23T04:30:15;63.77;;;53.30;;
703;SDS011;335;48.694;9.120;2023-05-23T04:32:42;64.77;;;56.27;;
703;SDS011;335;48.694;9.120;2023-05-23T04:35:07;67.53;;;53.53;;
703;SDS011;335;48.694;9.120;2023-05-23T04:37:33;60.77;;;51.67;;
703;SDS011;335;48.694;9.120;2023-05-23T04:39:59;59.37;;;52.10;;
703;SDS011;335;48.694;9.120;2023-05-23T04:42:25;58.27;;;51.33;;
703;SDS011;335;48.694;9.120;2023-05-23T04:44:50;56.03;;;49.90;;
703;SDS011;335;48.694;9.120;2023-05-23T04:47:16;55.27;;;49.07;;
703;SDS011;335;48.694;9.120;2023-05-23T04:49:43;62.87;;;50.30;;
703;SDS011;335;48.694;9.120;2023-05-23T04:52:08;55.70;;;47.00;;
703;SDS011;335;48.694;9.120;2023-05-23T04:54:34;54.90;;;49.17;;
703;SDS011;335;48.694;9.120;2023-05-23T04:57:01;59.07;;;49.27;;
703;SDS011;335;48.694;9.120;2023-05-23T04:59:26;55.60;;;48.73;;
703;SDS011;335;48.694;9.120;2023-05-23T05:01:52;53.83;;;47.73;;
703;SDS011;335;48.694;9.120;2023-05-23T05:04:17;52.00;;;46.50;;
703;SDS011;335;48.694;9.120;2023-05-23T05:06:43;53.70;;;47.17;;
703;SDS011;335;48.694;9.120;2023-05-23T05:09:08;53.90;;;45.83;;
703;SDS011;335;48.694;9.120;2023-05-23T05:11:33;52.87;;;47.20;;
703;SDS011;335;48.694;9.120;2023-05-23T05:13:58;55.97;;;49.03;;
703;SDS011;335;48.694;9.120;2023-05-23T05:16:24;49.70;;;44.60;;
703;SDS011;335;48.694;9.120;2023-05-23T05:18:49;51.03;;;44.77;;
703;SDS011;335;48.694;9.120;2023-05-23T05:21:15;52.67;;;46.97;;
703;SDS011;335;48.694;9.120;2023-05-23T05:23:40;51.90;;;46.70;;
703;SDS011;335;48.694;9.120;2023-05-23T05:26:06;50.50;;;45.00;;
703;SDS011;335;48.694;9.120;2023-05-23T05:28:32;50.80;;;45.40;;
703;SDS011;335;48.694;9.120;2023-05-23T05:30:57;50.37;;;44.93;;
703;SDS011;335;48.694;9.120;2023-05-23T05:33:22;50.50;;;42.10;;
703;SDS011;335;48.694;9.120;2023-05-23T05:35:48;51.03;;;45.43;;
703;SDS011;335;48.694;9.120;2023-05-23T05:38:15;50.17;;;44.93;;
703;SDS011;335;48.694;9.120;2023-05-23T05:40:41;48.53;;;43.60;;
703;SDS011;335;48.694;9.120;2023-05-23T05:43:06;47.40;;;42.40;;
703;SDS011;335;48.694;9.120;2023-05-23T05:45:31;52.00;;;46.70;;
703;SDS011;335;48.694;9.120;2023-05-23T05:47:57;51.13;;;45.70;;
703;SDS011;335;48.694;9.120;2023-05-23T05:50:22;50.53;;;44.53;;
703;SDS011;335;48.694;9.120;2023-05-23T05:52:48;51.47;;;45.93;;
703;SDS011;335;48.694;9.120;2023-05-23T05:55:13;52.50;;;46.87;;
703;SDS011;335;48.694;9.120;2023-05-23T05:57:39;51.50;;;46.07;;
703;SDS011;335;48.694;9.120;2023-05-23T06:00:05;48.97;;;43.87;;
703;SDS011;335;48.694;9.120;2023-05-23T06:02:39;48.80;;;43.97;;
703;SDS011;335;48.694;9.120;2023-05-23T06:05:05;49.03;;;44.03;;
703;SDS011;335;48.694;9.120;2023-05-23T06:07:32;50.53;;;45.27;;
703;SDS011;335;48.694;9.120;2023-05-23T06:09:58;49.83;;;44.73;;
703;SDS011;335;48.694;9.120;2023-05-23T06:12:23;46.83;;;42.03;;
703;SDS011;335;48.694;9.120;2023-05-23T06:14:48;50.40;;;45.20;;
703;SDS011;335;48.694;9.120;2023-05-23T06:17:14;45.63;;;41.07;;
703;SDS011;335;48.694;9.120;2023-05-23T06:19:39;47.80;;;42.87;;
703;SDS011;335;48.694;9.120;2023-05-23T06:22:04;48.00;;;43.27;;
703;SDS011;335;48.694;9.120;2023-05-23T06:24:30;50.27;;;45.40;;
703;SDS011;335;48.694;9.120;2023-05-23T06:26:55;47.47;;;42.90;;
703;SDS011;335;48.694;9.120;2023-05-23T06:29:20;48.83;;;43.50;;
703;SDS011;335;48.694;9.120;2023-05-23T06:31:46;48.80;;;43.77;;
703;SDS011;335;48.694;9.120;2023-05-23T06:34:11;48.93;;;44.00;;
703;SDS011;335;48.694;9.120;2023-05-23T06:36:36;47.70;;;43.00;;
703;SDS011;335;48.694;9.120;2023-05-23T06:39:01;45.90;;;41.50;;
703;SDS011;335;48.694;9.120;2023-05-23T06:41:27;44.73;;;40.27;;
703;SDS011;335;48.694;9.120;2023-05-23T06:43:52;46.30;;;41.90;;
703;SDS011;335;48.694;9.120;2023-05-23T06:46:17;48.53;;;43.83;;
703;SDS011;335;48.694;9.120;2023-05-23T06:48:43;45.47;;;40.73;;
703;SDS011;335;48.694;9.120;2023-05-23T06:51:08;46.20;;;41.57;;
703;SDS011;335;48.694;9.120;2023-05-23T06:53:34;44.90;;;40.53;;
703;SDS011;335;48.694;9.120;2023-05-23T06:55:59;43.57;;;39.37;;
703;SDS011;335;48.694;9.120;2023-05-23T06:58:25;40.17;;;36.10;;
703;SDS011;335;48.694;9.120;2023-05-23T07:00:50;39.23;;;35.57;;
703;SDS011;335;48.694;9.120;2023-05-23T07:03:16;40.43;;;36.67;;
703;SDS011;335;48.694;9.120;2023-05-23T07:05:41;40.97;;;37.20;;
703;SDS011;335;48.694;9.120;2023-05-23T07:08:07;39.87;;;36.10;;
703;SDS011;335;48.694;9.120;2023-05-23T07:10:34;40.73;;;36.97;;
703;SDS011;335;48.694;9.120;2023-05-23T07:13:00;38.67;;;34.87;;
703;SDS011;335;48.694;9.120;2023-05-23T07:15:25;39.70;;;35.80;;
703;SDS011;335;48.694;9.120;2023-05-23T07:17:50;40.73;;;36.80;;
703;SDS011;335;48.694;9.120;2023-05-23T07:20:16;39.47;;;35.70;;
703;SDS011;335;48.694;9.120;2023-05-23T07:22:41;39.73;;;35.63;;
703;SDS011;335;48.694;9.120;2023-05-23T07:25:07;40.33;;;36.73;;
703;SDS011;335;48.694;9.120;2023-05-23T07:27:32;38.00;;;34.30;;
703;SDS011;335;48.694;9.120;2023-05-23T07:29:58;40.33;;;36.63;;
703;SDS011;335;48.694;9.120;2023-05-23T07:32:23;39.33;;;35.60;;
703;SDS011;335;48.694;9.120;2023-05-23T07:34:49;36.23;;;32.77;;
703;SDS011;335;48.694;9.120;2023-05-23T07:37:14;36.97;;;33.37;;
703;SDS011;335;48.694;9.120;2023-05-23T07:39:40;38.13;;;34.57;;
703;SDS011;335;48.694;9.120;2023-05-23T07:42:05;35.93;;;32.43;;
703;SDS011;335;48.694;9.120;2023-05-23T07:44:31;38.43;;;34.73;;
703;SDS011;335;48.694;9.120;2023-05-23T07:46:56;41.47;;;37.17;;
703;SDS011;335;48.694;9.120;2023-05-23T07:49:21;40.70;;;36.73;;
703;SDS011;335;48.694;9.120;2023-05-23T07:51:47;42.13;;;38.13;;
703;SDS011;335;48.694;9.120;2023-05-23T07:54:12;43.67;;;39.50;;
703;SDS011;335;48.694;9.120;2023-05-23T07:56:37;46.10;;;41.73;;
703;SDS011;335;48.694;9.120;2023-05-23T07:59:03;41.77;;;37.67;;
703;SDS011;335;48.694;9.120;2023-05-23T08:01:29;44.30;;;39.90;;
703;SDS011;335;48.694;9.120;2023-05-23T08:03:55;46.33;;;41.37;;
703;SDS011;335;48.694;9.120;2023-05-23T08:06:20;55.60;;;40.53;;
703;SDS011;335;48.694;9.120;2023-05-23T08:08:45;45.07;;;40.67;;
703;SDS011;335;48.694;9.120;2023-05-23T08:11:11;43.13;;;39.10;;
703;SDS011;335;48.694;9.120;2023-05-23T08:13:36;39.10;;;35.50;;
703;SDS011;335;48.694;9.120;2023-05-23T08:16:01;41.97;;;37.73;;
703;SDS011;335;48.694;9.120;2023-05-23T08:18:27;40.03;;;36.23;;
703;SDS011;335;48.694;9.120;2023-05-23T08:20:54;37.83;;;34.30;;
703;SDS011;335;48.694;9.120;2023-05-23T08:23:19;41.33;;;37.60;;
703;SDS011;335;48.694;9.120;2023-05-23T08:25:45;38.07;;;34.47;;
703;SDS011;335;48.694;9.120;2023-05-23T08:28:10;35.87;;;32.27;;
703;SDS011;335;48.694;9.120;2023-05-23T08:30:36;34.80;;;31.60;;
703;SDS011;335;48.694;9.120;2023-05-23T08:33:01;33.73;;;30.77;;
703;SDS011;335;48.694;9.120;2023-05-23T08:35:28;30.93;;;28.20;;
703;SDS011;335;48.694;9.120;2023-05-23T08:37:58;34.37;;;31.17;;
703;SDS011;335;48.694;9.120;2023-05-23T08:40:25;31.13;;;28.37;;
703;SDS011;335;48.694;9.120;2023-05-23T08:42:53;32.00;;;29.10;;
703;SDS011;335;48.694;9.120;2023-05-23T08:45:18;32.23;;;29.30;;
703;SDS011;335;48.694;9.120;2023-05-23T08:47:44;32.87;;;29.80;;
703;SDS011;335;48.694;9.120;2023-05-23T08:50:14;33.87;;;30.67;;
703;SDS011;335;48.694;9.120;2023-05-23T08:52:45;33.67;;;30.53;;
703;SDS011;335;48.694;9.120;2023-05-23T08:55:13;30.93;;;28.23;;
703;SDS011;335;48.694;9.120;2023-05-23T08:57:40;35.30;;;32.17;;
703;SDS011;335;48.694;9.120;2023-05-23T09:00:08;30.67;;;27.80;;
703;SDS011;335;48.694;9.120;2023-05-23T09:02:39;29.77;;;27.07;;
703;SDS011;335;48.694;9.120;2023-05-23T09:05:05;29.30;;;26.60;;
703;SDS011;335;48.694;9.120;2023-05-23T09:07:31;31.00;;;28.07;;
703;SDS011;335;48.694;9.120;2023-05-23T09:09:56;28.37;;;25.63;;
703;SDS011;335;48.694;9.120;2023-05-23T09:12:22;28.60;;;25.80;;
703;SDS011;335;48.694;9.120;2023-05-23T09:14:47;29.70;;;26.80;;
703;SDS011;335;48.694;9.120;2023-05-23T09:17:14;25.57;;;23.37;;
703;SDS011;335;48.694;9.120;2023-05-23T09:19:42;26.00;;;23.53;;
703;SDS011;335;48.694;9.120;2023-05-23T09:22:07;28.30;;;25.30;;
703;SDS011;335;48.694;9.120;2023-05-23T09:24:33;27.50;;;25.10;;
703;SDS011;335;48.694;9.120;2023-05-23T09:26:59;29.23;;;26.53;;
703;SDS011;335;48.694;9.120;2023-05-23T09:29:25;28.77;;;26.27;;
703;SDS011;335;48.694;9.120;2023-05-23T09:31:51;27.90;;;25.40;;
703;SDS011;335;48.694;9.120;2023-05-23T09:34:24;26.53;;;23.83;;
703;SDS011;335;48.694;9.120;2023-05-23T09:36:49;24.60;;;22.30;;
703;SDS011;335;48.694;9.120;2023-05-23T09:39:15;21.33;;;19.53;;
703;SDS011;335;48.694;9.120;2023-05-23T09:41:40;19.83;;;18.13;;
703;SDS011;335;48.694;9.120;2023-05-23T09:44:08;18.47;;;16.77;;
703;SDS011;335;48.694;9.120;2023-05-23T09:46:35;19.77;;;18.17;;
703;SDS011;335;48.694;9.120;2023-05-23T09:49:05;17.30;;;15.80;;
703;SDS011;335;48.694;9.120;2023-05-23T09:51:39;18.30;;;16.80;;
703;SDS011;335;48.694;9.120;2023-05-23T09:54:04;17.07;;;15.77;;
703;SDS011;335;48.694;9.120;2023-05-23T09:56:30;19.00;;;17.30;;
703;SDS011;335;48.694;9.120;2023-05-23T09:58:56;16.57;;;15.37;;
703;SDS011;335;48.694;9.120;2023-05-23T10:01:22;15.13;;;13.93;;
703;SDS011;335;48.694;9.120;2023-05-23T10:03:49;15.37;;;14.00;;
703;SDS011;335;48.694;9.120;2023-05-23T10:06:22;14.50;;;13.30;;
703;SDS011;335;48.694;9.120;2023-05-23T10:08:54;14.30;;;13.23;;
703;SDS011;335;48.694;9.120;2023-05-23T10:14:08;12.80;;;11.70;;
703;SDS011;335;48.694;9.120;2023-05-23T10:19:39;12.80;;;11.90;;
703;SDS011;335;48.694;9.120;2023-05-23T10:22:11;13.00;;;11.90;;
703;SDS011;335;48.694;9.120;2023-05-23T10:24:36;13.40;;;12.33;;
703;SDS011;335;48.694;9.120;2023-05-23T10:27:02;12.03;;;11.23;;
703;SDS011;335;48.694;9.120;2023-05-23T10:29:28;10.97;;;10.17;;
703;SDS011;335;48.694;9.120;2023-05-23T10:31:54;11.10;;;10.40;;
703;SDS011;335;48.694;9.120;2023-05-23T10:37:01;11.93;;;11.03;;
703;SDS011;335;48.694;9.120;2023-05-23T10:42:31;11.27;;;10.43;;
703;SDS011;335;48.694;9.120;2023-05-23T10:45:20;11.47;;;10.67;;
703;SDS011;335;48.694;9.120;2023-05-23T10:47:46;11.73;;;10.83;;
703;SDS011;335;48.694;9.120;2023-05-23T10:50:13;11.70;;;10.80;;
703;SDS011;335;48.694;9.120;2023-05-23T10:52:47;11.63;;;10.70;;
703;SDS011;335;48.694;9.120;2023-05-23T10:55:18;12.20;;;11.20;;
703;SDS011;335;48.694;9.120;2023-05-23T10:57:44;10.10;;;9.40;;
703;SDS011;335;48.694;9.120;2023-05-23T11:00:13;10.70;;;9.90;;
703;SDS011;335;48.694;9.120;2023-05-23T11:02:45;10.73;;;10.03;;
703;SDS011;335;48.694;9.120;2023-05-23T11:05:23;11.10;;;10.30;;
703;SDS011;335;48.694;9.120;2023-05-23T11:10:50;11.10;;;10.40;;
703;SDS011;335;48.694;9.120;2023-05-23T11:13:20;11.00;;;10.20;;
703;SDS011;335;48.694;9.120;2023-05-23T11:15:46;10.43;;;9.83;;
703;SDS011;335;48.694;9.120;2023-05-23T11:18:26;11.33;;;10.53;;
703;SDS011;335;48.694;9.120;2023-05-23T11:20:52;11.90;;;11.07;;
703;SDS011;335;48.694;9.120;2023-05-23T11:23:18;11.30;;;10.50;;
703;SDS011;335;48.694;9.120;2023-05-23T11:25:44;10.73;;;9.93;;
703;SDS011;335;48.694;9.120;2023-05-23T11:28:10;10.20;;;9.50;;
703;SDS011;335;48.694;9.120;2023-05-23T11:30:36;11.20;;;10.47;;
703;SDS011;335;48.694;9.120;2023-05-23T11:33:08;11.83;;;10.83;;
703;SDS011;335;48.694;9.120;2023-05-23T11:35:37;10.30;;;9.70;;
703;SDS011;335;48.694;9.120;2023-05-23T11:38:04;12.37;;;11.47;;
703;SDS011;335;48.694;9.120;2023-05-23T11:40:30;10.87;;;10.17;;
703;SDS011;335;48.694;9.120;2023-05-23T11:42:56;12.43;;;11.43;;
703;SDS011;335;48.694;9.120;2023-05-23T11:45:22;11.07;;;10.27;;
703;SDS011;335;48.694;9.120;2023-05-23T11:47:48;11.57;;;10.70;;
703;SDS011;335;48.694;9.120;2023-05-23T11:50:16;12.07;;;11.17;;
703;SDS011;335;48.694;9.120;2023-05-23T11:52:41;10.23;;;9.43;;
703;SDS011;335;48.694;9.120;2023-05-23T11:55:07;11.90;;;10.90;;
703;SDS011;335;48.694;9.120;2023-05-23T11:57:36;12.03;;;11.07;;
703;SDS011;335;48.694;9.120;2023-05-23T12:00:03;12.43;;;11.47;;
703;SDS011;335;48.694;9.120;2023-05-23T12:02:36;10.70;;;10.00;;
703;SDS011;335;48.694;9.120;2023-05-23T12:05:05;12.00;;;11.00;;
703;SDS011;335;48.694;9.120;2023-05-23T12:07:34;11.23;;;10.43;;
703;SDS011;335;48.694;9.120;2023-05-23T12:10:02;10.30;;;9.50;;
703;SDS011;335;48.694;9.120;2023-05-23T12:12:28;10.33;;;9.53;;
703;SDS011;335;48.694;9.120;2023-05-23T12:14:55;10.23;;;9.60;;
703;SDS011;335;48.694;9.120;2023-05-23T12:17:21;11.40;;;10.60;;
703;SDS011;335;48.694;9.120;2023-05-23T12:19:46;9.60;;;8.90;;
703;SDS011;335;48.694;9.120;2023-05-23T12:22:12;10.73;;;9.83;;
703;SDS011;335;48.694;9.120;2023-05-23T12:24:43;10.53;;;9.93;;
703;SDS011;335;48.694;9.120;2023-05-23T12:27:09;13.17;;;12.00;;
703;SDS011;335;48.694;9.120;2023-05-23T12:29:35;12.33;;;11.33;;
703;SDS011;335;48.694;9.120;2023-05-23T12:32:02;10.87;;;10.17;;
703;SDS011;335;48.694;9.120;2023-05-23T12:34:28;8.30;;;7.80;;
703;SDS011;335;48.694;9.120;2023-05-23T12:36:54;7.00;;;6.60;;
703;SDS011;335;48.694;9.120;2023-05-23T12:39:23;6.50;;;5.80;;
703;SDS011;335;48.694;9.120;2023-05-23T12:41:51;7.10;;;6.70;;
703;SDS011;335;48.694;9.120;2023-05-23T12:44:16;5.47;;;5.17;;
703;SDS011;335;48.694;9.120;2023-05-23T12:46:42;4.80;;;4.60;;
703;SDS011;335;48.694;9.120;2023-05-23T12:49:07;5.43;;;5.03;;
703;SDS011;335;48.694;9.120;2023-05-23T12:51:33;6.20;;;5.80;;
703;SDS011;335;48.694;9.120;2023-05-23T12:53:58;7.07;;;6.60;;
703;SDS011;335;48.694;9.120;2023-05-23T12:56:23;7.10;;;6.60;;
703;SDS011;335;48.694;9.120;2023-05-23T12:58:49;5.30;;;5.00;;
703;SDS011;335;48.694;9.120;2023-05-23T13:01:15;4.90;;;4.60;;
703;SDS011;335;48.694;9.120;2023-05-23T13:03:40;5.60;;;5.30;;
703;SDS011;335;48.694;9.120;2023-05-23T13:06:06;5.80;;;5.43;;
703;SDS011;335;48.694;9.120;2023-05-23T13:08:31;4.77;;;4.57;;
703;SDS011;335;48.694;9.120;2023-05-23T13:10:57;5.40;;;5.20;;
703;SDS011;335;48.694;9.120;2023-05-23T13:13:22;5.30;;;5.00;;
703;SDS011;335;48.694;9.120;2023-05-23T13:15:47;4.87;;;4.63;;
703;SDS011;335;48.694;9.120;2023-05-23T13:18:13;4.40;;;4.20;;
703;SDS011;335;48.694;9.120;2023-05-23T13:20:38;4.50;;;4.20;;
703;SDS011;335;48.694;9.120;2023-05-23T13:23:03;4.47;;;4.27;;
703;SDS011;335;48.694;9.120;2023-05-23T13:25:29;5.03;;;4.73;;
703;SDS011;335;48.694;9.120;2023-05-23T13:27:55;4.30;;;4.10;;
703;SDS011;335;48.694;9.120;2023-05-23T13:30:21;4.63;;;4.43;;
703;SDS011;335;48.694;9.120;2023-05-23T13:32:47;4.80;;;4.50;;
703;SDS011;335;48.694;9.120;2023-05-23T13:35:12;5.03;;;4.83;;
703;SDS011;335;48.694;9.120;2023-05-23T13:37:38;4.90;;;4.60;;
703;SDS011;335;48.694;9.120;2023-05-23T13:40:03;4.93;;;4.70;;
703;SDS011;335;48.694;9.120;2023-05-23T13:42:29;4.67;;;4.37;;
703;SDS011;335;48.694;9.120;2023-05-23T13:44:55;5.43;;;5.20;;
703;SDS011;335;48.694;9.120;2023-05-23T13:47:20;5.60;;;5.30;;
703;SDS011;335;48.694;9.120;2023-05-23T13:49:45;5.70;;;4.80;;
703;SDS011;335;48.694;9.120;2023-05-23T13:52:11;5.43;;;5.20;;
703;SDS011;335;48.694;9.120;2023-05-23T13:54:36;6.17;;;5.80;;
703;SDS011;335;48.694;9.120;2023-05-23T13:57:02;5.70;;;5.40;;
703;SDS011;335;48.694;9.120;2023-05-23T13:59:28;5.10;;;4.90;;
703;SDS011;335;48.694;9.120;2023-05-23T14:01:53;5.23;;;4.93;;
703;SDS011;335;48.694;9.120;2023-05-23T14:04:18;5.10;;;4.70;;
703;SDS011;335;48.694;9.120;2023-05-23T14:06:44;5.37;;;4.93;;
703;SDS011;335;48.694;9.120;2023-05-23T14:09:10;5.70;;;5.33;;
703;SDS011;335;48.694;9.120;2023-05-23T14:11:36;5.40;;;5.10;;
703;SDS011;335;48.694;9.120;2023-05-23T14:14:02;4.50;;;4.33;;
703;SDS011;335;48.694;9.120;2023-05-23T14:16:27;5.30;;;5.00;;
703;SDS011;335;48.694;9.120;2023-05-23T14:18:52;4.40;;;4.20;;
703;SDS011;335;48.694;9.120;2023-05-23T14:21:18;4.70;;;4.30;;
703;SDS011;335;48.694;9.120;2023-05-23T14:23:43;4.00;;;3.80;;
703;SDS011;335;48.694;9.120;2023-05-23T14:26:08;4.00;;;3.80;;
703;SDS011;335;48.694;9.120;2023-05-23T14:28:34;4.03;;;3.83;;
703;SDS011;335;48.694;9.120;2023-05-23T14:30:59;4.30;;;4.10;;
703;SDS011;335;48.694;9.120;2023-05-23T14:33:25;5.17;;;4.87;;
703;SDS011;335;48.694;9.120;2023-05-23T14:35:50;4.53;;;4.23;;
703;SDS011;335;48.694;9.120;2023-05-23T14:38:16;5.43;;;5.03;;
703;SDS011;335;48.694;9.120;2023-05-23T14:40:42;5.27;;;4.73;;
703;SDS011;335;48.694;9.120;2023-05-23T14:43:07;4.83;;;4.63;;
703;SDS011;335;48.694;9.120;2023-05-23T14:45:32;4.50;;;4.30;;
703;SDS011;335;48.694;9.120;2023-05-23T14:47:58;4.90;;;4.50;;
703;SDS011;335;48.694;9.120;2023-05-23T14:50:24;5.23;;;4.90;;
703;SDS011;335;48.694;9.120;2023-05-23T14:52:50;4.70;;;4.40;;
703;SDS011;335;48.694;9.120;2023-05-23T14:55:15;4.90;;;4.60;;
703;SDS011;335;48.694;9.120;2023-05-23T14:57:41;4.50;;;4.30;;
703;SDS011;335;48.694;9.120;2023-05-23T15:00:07;5.10;;;4.80;;
703;SDS011;335;48.694;9.120;2023-05-23T15:02:34;4.70;;;4.47;;
703;SDS011;335;48.694;9.120;2023-05-23T15:04:59;4.53;;;4.33;;
703;SDS011;335;48.694;9.120;2023-05-23T15:07:25;5.03;;;4.73;;
703;SDS011;335;48.694;9.120;2023-05-23T15:09:50;5.97;;;5.47;;
703;SDS011;335;48.694;9.120;2023-05-23T15:12:16;4.93;;;4.73;;
703;SDS011;335;48.694;9.120;2023-05-23T15:14:42;5.23;;;4.90;;
703;SDS011;335;48.694;9.120;2023-05-23T15:17:08;5.10;;;4.80;;
703;SDS011;335;48.694;9.120;2023-05-23T15:19:36;4.90;;;4.50;;
703;SDS011;335;48.694;9.120;2023-05-23T15:22:03;4.63;;;4.43;;
703;SDS011;335;48.694;9.120;2023-05-23T15:24:29;4.33;;;4.03;;
703;SDS011;335;48.694;9.120;2023-05-23T15:26:55;4.83;;;4.60;;
703;SDS011;335;48.694;9.120;2023-05-23T15:29:24;4.10;;;3.80;;
703;SDS011;335;48.694;9.120;2023-05-23T15:31:50;4.60;;;4.20;;
703;SDS011;335;48.694;9.120;2023-05-23T15:34:16;4.07;;;3.87;;
703;SDS011;335;48.694;9.120;2023-05-23T15:36:41;5.67;;;5.17;;
703;SDS011;335;48.694;9.120;2023-05-23T15:39:06;5.40;;;5.00;;